Lavaca, Arkansas
Current Conditions -  °F | °C
As of 4:53 PM on Friday 28 Nov 2014 (Local Time) from KFSM Reporting Station
Clear Clear  
Wind Chill: 62°   Ceiling: Unl
Heat Index: 62°   Visibility: 10mi
Dew Point: 37°   Wind: 8mph
Humidity: 39%   Direction: 180°S
Pressure: 29.99"   Gusts: NA
Location:  35.34°N, 94.17°W
Report Text: KFSM 282253Z AUTO 18007KT 10SM CLR 17/03 A2999 RMK AO2 SLP156 T01670028 TSNO
Loading
Personal Weather Stations






























Interactive Weather Map New forecast layout! Learn more

10-Day Weather Forecast

Advertisements
Track Severe Weather on mobile